sensor_id;sensor_type;location;lat;lon;timestamp;pressure;altitude;pressure_sealevel;temperature;humidity
3590;BME280;1809;48.470;9.226;2024-03-08T00:01:39;-16264.00;;;3.57;100.00
3590;BME280;1809;48.470;9.226;2024-03-08T00:04:04;-16269.03;;;3.59;100.00
3590;BME280;1809;48.470;9.226;2024-03-08T00:06:31;-16268.19;;;3.56;100.00
3590;BME280;1809;48.470;9.226;2024-03-08T00:08:57;-16267.91;;;3.55;100.00
3590;BME280;1809;48.470;9.226;2024-03-08T00:11:22;-16269.31;;;3.60;100.00
3590;BME280;1809;48.470;9.226;2024-03-08T00:13:51;-16267.34;;;3.53;100.00
3590;BME280;1809;48.470;9.226;2024-03-08T00:16:17;-16267.06;;;3.52;100.00
3590;BME280;1809;48.470;9.226;2024-03-08T00:18:44;-15973.16;;;3.50;100.00
3590;BME280;1809;48.470;9.226;2024-03-08T00:21:09;-15998.72;;;3.50;100.00
3590;BME280;1809;48.470;9.226;2024-03-08T00:23:37;-16266.22;;;3.49;100.00
3590;BME280;1809;48.470;9.226;2024-03-08T00:26:02;-16266.50;;;3.50;100.00
3590;BME280;1809;48.470;9.226;2024-03-08T00:28:29;-16266.78;;;3.51;100.00
3590;BME280;1809;48.470;9.226;2024-03-08T00:30:56;-16266.91;;;3.51;100.00
3590;BME280;1809;48.470;9.226;2024-03-08T00:33:21;-16266.22;;;3.49;100.00
3590;BME280;1809;48.470;9.226;2024-03-08T00:35:46;-16263.97;;;3.41;100.00
3590;BME280;1809;48.470;9.226;2024-03-08T00:38:12;-16265.38;;;3.46;100.00
3590;BME280;1809;48.470;9.226;2024-03-08T00:40:38;-16265.38;;;3.46;100.00
3590;BME280;1809;48.470;9.226;2024-03-08T00:43:03;-16264.25;;;3.42;100.00
3590;BME280;1809;48.470;9.226;2024-03-08T00:45:29;-16264.53;;;3.43;100.00
3590;BME280;1809;48.470;9.226;2024-03-08T00:47:54;-16265.09;;;3.45;100.00
3590;BME280;1809;48.470;9.226;2024-03-08T00:50:20;-16264.53;;;3.43;100.00
3590;BME280;1809;48.470;9.226;2024-03-08T00:52:45;-16263.53;;;3.39;100.00
3590;BME280;1809;48.470;9.226;2024-03-08T00:55:11;-16263.41;;;3.39;100.00
3590;BME280;1809;48.470;9.226;2024-03-08T00:57:37;-16261.72;;;3.33;100.00
3590;BME280;1809;48.470;9.226;2024-03-08T01:00:05;-16263.41;;;3.39;100.00
3590;BME280;1809;48.470;9.226;2024-03-08T01:02:35;-16262.97;;;3.37;100.00
3590;BME280;1809;48.470;9.226;2024-03-08T01:05:01;-16262.28;;;3.35;100.00
3590;BME280;1809;48.470;9.226;2024-03-08T01:07:26;-16261.72;;;3.33;100.00
3590;BME280;1809;48.470;9.226;2024-03-08T01:09:51;-16261.44;;;3.32;100.00
3590;BME280;1809;48.470;9.226;2024-03-08T01:12:17;-16260.56;;;3.29;100.00
3590;BME280;1809;48.470;9.226;2024-03-08T01:14:42;-16261.72;;;3.33;100.00
3590;BME280;1809;48.470;9.226;2024-03-08T01:17:07;-16262.69;;;3.36;100.00
3590;BME280;1809;48.470;9.226;2024-03-08T01:19:34;-16261.56;;;3.32;100.00
3590;BME280;1809;48.470;9.226;2024-03-08T01:22:00;-16259.03;;;3.23;100.00
3590;BME280;1809;48.470;9.226;2024-03-08T01:24:25;-16256.06;;;3.12;100.00
3590;BME280;1809;48.470;9.226;2024-03-08T01:26:51;-16254.38;;;3.06;100.00
3590;BME280;1809;48.470;9.226;2024-03-08T01:29:16;-16250.00;;;2.91;100.00
3590;BME280;1809;48.470;9.226;2024-03-08T01:31:41;-16251.84;;;2.97;100.00
3590;BME280;1809;48.470;9.226;2024-03-08T01:34:07;-16247.06;;;2.80;100.00
3590;BME280;1809;48.470;9.226;2024-03-08T01:36:32;-16244.25;;;2.70;100.00
3590;BME280;1809;48.470;9.226;2024-03-08T01:38:57;-16246.50;;;2.78;100.00
3590;BME280;1809;48.470;9.226;2024-03-08T01:41:22;-16249.59;;;2.89;100.00
3590;BME280;1809;48.470;9.226;2024-03-08T01:43:48;-16254.94;;;3.08;100.00
3590;BME280;1809;48.470;9.226;2024-03-08T01:46:18;-16255.09;;;3.09;100.00
3590;BME280;1809;48.470;9.226;2024-03-08T01:48:44;-16251.44;;;2.96;100.00
3590;BME280;1809;48.470;9.226;2024-03-08T01:51:10;-16250.16;;;2.91;100.00
3590;BME280;1809;48.470;9.226;2024-03-08T01:53:37;-16246.22;;;2.77;100.00
3590;BME280;1809;48.470;9.226;2024-03-08T01:56:03;-16242.56;;;2.64;100.00
3590;BME280;1809;48.470;9.226;2024-03-08T01:58:29;-16239.44;;;2.53;100.00
3590;BME280;1809;48.470;9.226;2024-03-08T02:00:56;-16236.34;;;2.42;100.00
3590;BME280;1809;48.470;9.226;2024-03-08T02:03:23;-13735.59;;;2.32;100.00
3590;BME280;1809;48.470;9.226;2024-03-08T02:05:48;-2492.72;;;2.34;100.00
3590;BME280;1809;48.470;9.226;2024-03-08T02:08:14;5715.72;;;2.29;100.00
3590;BME280;1809;48.470;9.226;2024-03-08T02:10:45;11967.69;;;2.29;100.00
3590;BME280;1809;48.470;9.226;2024-03-08T02:13:11;15590.00;;;2.18;100.00
3590;BME280;1809;48.470;9.226;2024-03-08T02:18:20;24180.22;;;2.39;100.00
3590;BME280;1809;48.470;9.226;2024-03-08T02:20:50;23189.59;;;2.42;100.00
3590;BME280;1809;48.470;9.226;2024-03-08T02:23:16;20882.00;;;2.58;100.00
3590;BME280;1809;48.470;9.226;2024-03-08T02:25:41;15598.34;;;2.53;100.00
3590;BME280;1809;48.470;9.226;2024-03-08T02:28:09;14606.47;;;2.42;100.00
3590;BME280;1809;48.470;9.226;2024-03-08T02:30:35;16584.44;;;2.39;100.00
3590;BME280;1809;48.470;9.226;2024-03-08T02:33:01;18892.59;;;2.33;100.00
3590;BME280;1809;48.470;9.226;2024-03-08T02:35:26;20543.03;;;2.32;100.00
3590;BME280;1809;48.470;9.226;2024-03-08T02:37:51;21532.16;;;2.27;100.00
3590;BME280;1809;48.470;9.226;2024-03-08T02:40:16;24504.66;;;2.23;100.00
3590;BME280;1809;48.470;9.226;2024-03-08T02:42:42;28147.00;;;2.32;100.00
3590;BME280;1809;48.470;9.226;2024-03-08T02:45:08;27810.69;;;2.20;100.00
3590;BME280;1809;48.470;9.226;2024-03-08T02:47:35;29792.31;;;2.10;100.00
3590;BME280;1809;48.470;9.226;2024-03-08T02:50:00;33106.97;;;2.15;100.00
3590;BME280;1809;48.470;9.226;2024-03-08T02:52:26;33766.28;;;2.09;100.00
3590;BME280;1809;48.470;9.226;2024-03-08T02:54:52;34092.50;;;1.99;100.00
3590;BME280;1809;48.470;9.226;2024-03-08T02:57:17;35077.81;;;1.83;100.00
3590;BME280;1809;48.470;9.226;2024-03-08T02:59:43;38386.13;;;1.71;100.00
3590;BME280;1809;48.470;9.226;2024-03-08T03:02:09;42703.75;;;1.76;100.00
3590;BME280;1809;48.470;9.226;2024-03-08T03:04:35;46359.09;;;1.76;100.00
3590;BME280;1809;48.470;9.226;2024-03-08T03:07:01;48010.59;;;1.61;100.00
3590;BME280;1809;48.470;9.226;2024-03-08T03:09:26;51001.72;;;1.57;100.00
3590;BME280;1809;48.470;9.226;2024-03-08T03:11:56;55672.88;;;1.66;100.00
3590;BME280;1809;48.470;9.226;2024-03-08T03:14:22;59022.47;;;1.81;100.00
3590;BME280;1809;48.470;9.226;2024-03-08T03:16:47;60363.19;;;1.87;100.00
3590;BME280;1809;48.470;9.226;2024-03-08T03:19:12;60023.41;;;1.81;100.00
3590;BME280;1809;48.470;9.226;2024-03-08T03:21:38;59675.91;;;1.67;100.00
3590;BME280;1809;48.470;9.226;2024-03-08T03:24:04;60339.50;;;1.62;100.00
3590;BME280;1809;48.470;9.226;2024-03-08T03:26:35;59989.06;;;1.45;100.00
3590;BME280;1809;48.470;9.226;2024-03-08T03:29:02;62326.00;;;1.46;100.00
3590;BME280;1809;48.470;9.226;2024-03-08T03:31:28;65678.41;;;1.57;100.00
3590;BME280;1809;48.470;9.226;2024-03-08T03:33:54;67019.09;;;1.60;100.00
3590;BME280;1809;48.470;9.226;2024-03-08T03:36:19;68037.03;;;1.73;100.00
3590;BME280;1809;48.470;9.226;2024-03-08T03:38:45;68382.88;;;1.83;100.00
3590;BME280;1809;48.470;9.226;2024-03-08T03:41:10;68049.84;;;1.85;100.00
3590;BME280;1809;48.470;9.226;2024-03-08T03:43:38;66703.28;;;1.77;100.00
3590;BME280;1809;48.470;9.226;2024-03-08T03:46:07;66702.16;;;1.76;100.00
3590;BME280;1809;48.470;9.226;2024-03-08T03:48:33;67383.34;;;1.87;100.00
3590;BME280;1809;48.470;9.226;2024-03-08T03:50:58;67393.28;;;1.96;100.00
3590;BME280;1809;48.470;9.226;2024-03-08T03:53:23;65717.69;;;1.94;100.00
3590;BME280;1809;48.470;9.226;2024-03-08T03:55:51;64371.03;;;1.85;100.00
3590;BME280;1809;48.470;9.226;2024-03-08T03:58:16;64713.84;;;1.93;100.00
3590;BME280;1809;48.470;9.226;2024-03-08T04:00:47;64379.47;;;1.93;100.00
3590;BME280;1809;48.470;9.226;2024-03-08T04:03:12;63713.97;;;1.96;100.00
3590;BME280;1809;48.470;9.226;2024-03-08T04:05:38;62706.59;;;1.92;100.00
3590;BME280;1809;48.470;9.226;2024-03-08T04:08:04;62372.44;;;1.92;100.00
3590;BME280;1809;48.470;9.226;2024-03-08T04:10:29;62366.81;;;1.86;100.00
3590;BME280;1809;48.470;9.226;2024-03-08T04:12:55;64047.25;;;1.95;100.00
3590;BME280;1809;48.470;9.226;2024-03-08T04:15:21;63029.94;;;1.81;100.00
3590;BME280;1809;48.470;9.226;2024-03-08T04:17:48;65046.13;;;1.91;100.00
3590;BME280;1809;48.470;9.226;2024-03-08T04:20:13;66728.41;;;2.00;100.00
3590;BME280;1809;48.470;9.226;2024-03-08T04:22:39;66051.66;;;1.93;100.00
3590;BME280;1809;48.470;9.226;2024-03-08T04:25:06;66385.66;;;1.93;100.00
3590;BME280;1809;48.470;9.226;2024-03-08T04:27:35;66725.13;;;1.97;100.00
3590;BME280;1809;48.470;9.226;2024-03-08T04:30:02;67055.91;;;1.94;100.00
3590;BME280;1809;48.470;9.226;2024-03-08T04:32:27;68065.50;;;1.99;100.00
3590;BME280;1809;48.470;9.226;2024-03-08T04:34:55;68068.28;;;2.01;100.00
3590;BME280;1809;48.470;9.226;2024-03-08T04:37:20;68748.56;;;2.11;100.00
3590;BME280;1809;48.470;9.226;2024-03-08T04:39:49;68419.31;;;2.16;100.00
3590;BME280;1809;48.470;9.226;2024-03-08T04:42:15;68431.09;;;2.27;100.00
3590;BME280;1809;48.470;9.226;2024-03-08T04:44:41;65754.28;;;2.28;100.00
3590;BME280;1809;48.470;9.226;2024-03-08T04:47:06;63079.47;;;2.30;100.00
3590;BME280;1809;48.470;9.226;2024-03-08T04:49:32;59745.69;;;2.39;100.00
3590;BME280;1809;48.470;9.226;2024-03-08T04:52:01;56736.00;;;2.35;100.00
3590;BME280;1809;48.470;9.226;2024-03-08T04:54:27;54729.63;;;2.30;100.00
3590;BME280;1809;48.470;9.226;2024-03-08T04:56:53;54061.13;;;2.29;100.00
3590;BME280;1809;48.470;9.226;2024-03-08T04:59:19;55071.31;;;2.39;100.00
3590;BME280;1809;48.470;9.226;2024-03-08T05:01:44;52734.16;;;2.37;100.00
3590;BME280;1809;48.470;9.226;2024-03-08T05:04:09;52071.56;;;2.42;100.00
3590;BME280;1809;48.470;9.226;2024-03-08T05:06:35;50072.53;;;2.43;100.00
3590;BME280;1809;48.470;9.226;2024-03-08T05:09:01;48074.63;;;2.44;100.00
3590;BME280;1809;48.470;9.226;2024-03-08T05:11:39;47408.63;;;2.44;100.00
3590;BME280;1809;48.470;9.226;2024-03-08T05:14:04;46409.91;;;2.44;100.00
3590;BME280;1809;48.470;9.226;2024-03-08T05:16:29;44751.13;;;2.51;100.00
3590;BME280;1809;48.470;9.226;2024-03-08T05:18:55;42757.38;;;2.54;100.00
3590;BME280;1809;48.470;9.226;2024-03-08T05:21:22;41099.69;;;2.61;100.00
3590;BME280;1809;48.470;9.226;2024-03-08T05:23:47;38766.00;;;2.49;100.00
3590;BME280;1809;48.470;9.226;2024-03-08T05:26:12;36440.13;;;2.46;100.00
3590;BME280;1809;48.470;9.226;2024-03-08T05:28:39;35443.47;;;2.44;100.00
3590;BME280;1809;48.470;9.226;2024-03-08T05:31:04;35777.00;;;2.47;100.00
3590;BME280;1809;48.470;9.226;2024-03-08T05:33:30;36767.28;;;2.38;100.00
3590;BME280;1809;48.470;9.226;2024-03-08T05:35:55;37091.69;;;2.25;100.00
3590;BME280;1809;48.470;9.226;2024-03-08T05:38:21;40079.22;;;2.25;100.00
3590;BME280;1809;48.470;9.226;2024-03-08T05:40:46;42742.16;;;2.32;100.00
3590;BME280;1809;48.470;9.226;2024-03-08T05:43:11;43078.78;;;2.38;100.00
3590;BME280;1809;48.470;9.226;2024-03-08T05:45:37;43070.75;;;2.26;100.00
3590;BME280;1809;48.470;9.226;2024-03-08T05:48:02;44729.34;;;2.21;100.00
3590;BME280;1809;48.470;9.226;2024-03-08T05:50:28;46394.09;;;2.23;100.00
3590;BME280;1809;48.470;9.226;2024-03-08T05:52:53;46734.44;;;2.33;100.00
3590;BME280;1809;48.470;9.226;2024-03-08T05:55:19;44405.44;;;2.33;100.00
3590;BME280;1809;48.470;9.226;2024-03-08T05:57:44;44404.72;;;2.32;100.00
3590;BME280;1809;48.470;9.226;2024-03-08T06:00:10;43412.00;;;2.39;100.00
3590;BME280;1809;48.470;9.226;2024-03-08T06:02:36;42414.56;;;2.39;100.00
3590;BME280;1809;48.470;9.226;2024-03-08T06:05:15;40749.81;;;2.34;100.00
3590;BME280;1809;48.470;9.226;2024-03-08T06:07:40;39753.53;;;2.35;100.00
3590;BME280;1809;48.470;9.226;2024-03-08T06:10:10;39081.72;;;2.23;100.00
3590;BME280;1809;48.470;9.226;2024-03-08T06:12:36;41744.31;;;2.31;100.00
3590;BME280;1809;48.470;9.226;2024-03-08T06:15:08;43408.47;;;2.34;100.00
3590;BME280;1809;48.470;9.226;2024-03-08T06:17:35;43406.38;;;2.31;100.00
3590;BME280;1809;48.470;9.226;2024-03-08T06:20:01;45087.88;;;2.56;100.00
3590;BME280;1809;48.470;9.226;2024-03-08T06:22:26;40085.06;;;2.34;100.00
3590;BME280;1809;48.470;9.226;2024-03-08T06:24:52;40413.31;;;2.28;100.00
3590;BME280;1809;48.470;9.226;2024-03-08T06:27:19;43085.06;;;2.47;100.00
3590;BME280;1809;48.470;9.226;2024-03-08T06:29:44;42415.22;;;2.40;100.00
3590;BME280;1809;48.470;9.226;2024-03-08T06:32:10;41415.38;;;2.36;100.00
3590;BME280;1809;48.470;9.226;2024-03-08T06:34:35;41756.81;;;2.49;100.00
3590;BME280;1809;48.470;9.226;2024-03-08T06:37:01;38760.34;;;2.40;100.00
3590;BME280;1809;48.470;9.226;2024-03-08T06:39:27;38418.97;;;2.25;100.00
3590;BME280;1809;48.470;9.226;2024-03-08T06:41:54;41752.78;;;2.43;100.00
3590;BME280;1809;48.470;9.226;2024-03-08T06:44:19;39411.84;;;2.20;100.00
3590;BME280;1809;48.470;9.226;2024-03-08T06:46:47;42070.53;;;2.22;100.00
3590;BME280;1809;48.470;9.226;2024-03-08T06:49:13;45406.31;;;2.37;100.00
3590;BME280;1809;48.470;9.226;2024-03-08T06:51:38;47745.50;;;2.49;100.00
3590;BME280;1809;48.470;9.226;2024-03-08T06:54:06;44411.91;;;2.42;100.00
3590;BME280;1809;48.470;9.226;2024-03-08T06:56:34;45414.44;;;2.48;100.00
3590;BME280;1809;48.470;9.226;2024-03-08T06:58:59;45755.78;;;2.59;100.00
3590;BME280;1809;48.470;9.226;2024-03-08T07:01:25;44428.13;;;2.64;100.00
3590;BME280;1809;48.470;9.226;2024-03-08T07:03:50;41764.59;;;2.61;100.00
3590;BME280;1809;48.470;9.226;2024-03-08T07:06:18;37764.88;;;2.41;100.00
3590;BME280;1809;48.470;9.226;2024-03-08T07:08:44;37092.28;;;2.26;100.00
3590;BME280;1809;48.470;9.226;2024-03-08T07:11:11;39086.47;;;2.30;100.00
3590;BME280;1809;48.470;9.226;2024-03-08T07:13:37;40420.53;;;2.39;100.00
3590;BME280;1809;48.470;9.226;2024-03-08T07:16:04;37761.22;;;2.35;100.00
3590;BME280;1809;48.470;9.226;2024-03-08T07:18:30;37429.28;;;2.35;100.00
3590;BME280;1809;48.470;9.226;2024-03-08T07:20:55;38100.56;;;2.47;100.00
3590;BME280;1809;48.470;9.226;2024-03-08T07:23:21;34786.16;;;2.55;100.00
3590;BME280;1809;48.470;9.226;2024-03-08T07:26:05;32793.50;;;2.50;100.00
3590;BME280;1809;48.470;9.226;2024-03-08T07:28:30;32461.97;;;2.50;100.00
3590;BME280;1809;48.470;9.226;2024-03-08T07:30:57;31472.13;;;2.59;100.00
3590;BME280;1809;48.470;9.226;2024-03-08T07:33:45;27502.63;;;2.72;100.00
3590;BME280;1809;48.470;9.226;2024-03-08T07:36:11;24862.09;;;2.91;100.00
3590;BME280;1809;48.470;9.226;2024-03-08T07:38:36;20233.50;;;2.97;100.00
3590;BME280;1809;48.470;9.226;2024-03-08T07:41:01;13960.88;;;3.06;100.00
3590;BME280;1809;48.470;9.226;2024-03-08T07:43:27;5721.84;;;3.07;100.00
3590;BME280;1809;48.470;9.226;2024-03-08T07:45:52;-854.53;;;3.00;100.00
3590;BME280;1809;48.470;9.226;2024-03-08T07:48:20;-2826.06;;;3.22;100.00
3590;BME280;1809;48.470;9.226;2024-03-08T07:50:46;-9306.13;;;3.28;100.00
3590;BME280;1809;48.470;9.226;2024-03-08T07:53:11;-13940.28;;;3.29;100.00
3590;BME280;1809;48.470;9.226;2024-03-08T07:55:37;-16260.88;;;3.30;100.00
3590;BME280;1809;48.470;9.226;2024-03-08T07:58:03;-14028.72;;;3.56;100.00
3590;BME280;1809;48.470;9.226;2024-03-08T08:00:29;-16258.31;;;3.20;100.00
3590;BME280;1809;48.470;9.226;2024-03-08T08:02:56;-16263.97;;;3.41;100.00
3590;BME280;1809;48.470;9.226;2024-03-08T08:05:21;-16264.94;;;3.44;100.00
3590;BME280;1809;48.470;9.226;2024-03-08T08:07:47;-16263.41;;;3.39;100.00
3590;BME280;1809;48.470;9.226;2024-03-08T08:10:13;-16260.88;;;3.30;100.00
3590;BME280;1809;48.470;9.226;2024-03-08T08:12:47;-16256.22;;;3.13;100.00
3590;BME280;1809;48.470;9.226;2024-03-08T08:15:12;-16263.81;;;3.40;100.00
3590;BME280;1809;48.470;9.226;2024-03-08T08:17:38;-16266.78;;;3.51;100.00
3590;BME280;1809;48.470;9.226;2024-03-08T08:20:04;-16273.25;;;3.74;100.00
3590;BME280;1809;48.470;9.226;2024-03-08T08:22:30;-16275.94;;;3.84;100.00
3590;BME280;1809;48.470;9.226;2024-03-08T08:24:56;-16275.50;;;3.82;100.00
3590;BME280;1809;48.470;9.226;2024-03-08T08:27:21;-16279.44;;;3.96;100.00
3590;BME280;1809;48.470;9.226;2024-03-08T08:29:47;-16276.63;;;3.86;100.00
3590;BME280;1809;48.470;9.226;2024-03-08T08:32:13;-16273.81;;;3.76;100.00
3590;BME280;1809;48.470;9.226;2024-03-08T08:34:38;-16275.78;;;3.83;100.00
3590;BME280;1809;48.470;9.226;2024-03-08T08:37:03;-16279.72;;;3.97;100.00
3590;BME280;1809;48.470;9.226;2024-03-08T08:39:29;-16275.50;;;3.82;100.00
3590;BME280;1809;48.470;9.226;2024-03-08T08:41:54;-16269.03;;;3.59;100.00
3590;BME280;1809;48.470;9.226;2024-03-08T08:44:19;-16276.91;;;3.87;100.00
3590;BME280;1809;48.470;9.226;2024-03-08T08:46:45;-16277.75;;;3.90;100.00
3590;BME280;1809;48.470;9.226;2024-03-08T08:49:10;-16279.44;;;3.96;100.00
3590;BME280;1809;48.470;9.226;2024-03-08T08:51:39;-16286.06;;;4.20;100.00
3590;BME280;1809;48.470;9.226;2024-03-08T08:54:05;-16285.78;;;4.19;100.00
3590;BME280;1809;48.470;9.226;2024-03-08T08:56:31;-16286.19;;;4.20;100.00
3590;BME280;1809;48.470;9.226;2024-03-08T08:58:57;-16289.31;;;4.31;100.00
3590;BME280;1809;48.470;9.226;2024-03-08T09:01:23;-16292.13;;;4.42;100.00
3590;BME280;1809;48.470;9.226;2024-03-08T09:03:48;-16293.81;;;4.48;100.00
3590;BME280;1809;48.470;9.226;2024-03-08T09:06:15;-16293.53;;;4.47;100.00
3590;BME280;1809;48.470;9.226;2024-03-08T09:08:41;-16292.97;;;4.45;100.00
3590;BME280;1809;48.470;9.226;2024-03-08T09:11:07;-16298.59;;;4.65;100.00
3590;BME280;1809;48.470;9.226;2024-03-08T09:13:32;-16299.00;;;4.66;100.00
3590;BME280;1809;48.470;9.226;2024-03-08T09:15:59;-16298.59;;;4.65;100.00
3590;BME280;1809;48.470;9.226;2024-03-08T09:18:24;-16289.31;;;4.31;100.00
3590;BME280;1809;48.470;9.226;2024-03-08T09:20:50;-16270.44;;;3.64;100.00
3590;BME280;1809;48.470;9.226;2024-03-08T09:23:16;-16269.03;;;3.59;100.00
3590;BME280;1809;48.470;9.226;2024-03-08T09:25:44;-16273.25;;;3.74;100.00
3590;BME280;1809;48.470;9.226;2024-03-08T09:28:10;-16269.44;;;3.60;100.00
3590;BME280;1809;48.470;9.226;2024-03-08T09:30:40;-16272.69;;;3.72;100.00
3590;BME280;1809;48.470;9.226;2024-03-08T09:33:06;-16284.50;;;4.14;100.00
3590;BME280;1809;48.470;9.226;2024-03-08T09:35:31;-16282.53;;;4.07;100.00
3590;BME280;1809;48.470;9.226;2024-03-08T09:37:57;-16278.88;;;3.94;100.00
3590;BME280;1809;48.470;9.226;2024-03-08T09:40:22;-16277.19;;;3.88;100.00
3590;BME280;1809;48.470;9.226;2024-03-08T09:42:49;-16287.63;;;4.25;100.00
3590;BME280;1809;48.470;9.226;2024-03-08T09:45:16;-16287.63;;;4.25;100.00
3590;BME280;1809;48.470;9.226;2024-03-08T09:47:43;-16297.03;;;4.59;100.00
3590;BME280;1809;48.470;9.226;2024-03-08T09:50:09;-16304.78;;;4.87;100.00
3590;BME280;1809;48.470;9.226;2024-03-08T09:52:38;-16301.97;;;4.77;100.00
3590;BME280;1809;48.470;9.226;2024-03-08T09:55:09;-16310.41;;;5.07;100.00
3590;BME280;1809;48.470;9.226;2024-03-08T09:57:36;-16318.00;;;5.34;100.00
3590;BME280;1809;48.470;9.226;2024-03-08T10:00:03;-16316.75;;;5.30;100.00
3590;BME280;1809;48.470;9.226;2024-03-08T10:02:45;-16327.88;;;5.70;100.00
3590;BME280;1809;48.470;9.226;2024-03-08T10:05:12;-16325.91;;;5.63;100.00
3590;BME280;1809;48.470;9.226;2024-03-08T10:07:37;-16335.19;;;5.96;100.00
3590;BME280;1809;48.470;9.226;2024-03-08T10:10:03;-16336.88;;;6.02;100.00
3590;BME280;1809;48.470;9.226;2024-03-08T10:12:28;-16340.25;;;6.14;100.00
3590;BME280;1809;48.470;9.226;2024-03-08T10:14:58;-16339.69;;;6.12;100.00
3590;BME280;1809;48.470;9.226;2024-03-08T10:17:23;-16343.06;;;6.24;100.00
3590;BME280;1809;48.470;9.226;2024-03-08T10:19:50;-16332.66;;;5.87;100.00
3590;BME280;1809;48.470;9.226;2024-03-08T10:22:16;-16332.94;;;5.88;100.00
3590;BME280;1809;48.470;9.226;2024-03-08T10:24:45;-16332.66;;;5.87;100.00
3590;BME280;1809;48.470;9.226;2024-03-08T10:27:10;-16331.09;;;5.81;100.00
3590;BME280;1809;48.470;9.226;2024-03-08T10:29:36;-16320.25;;;5.42;100.00
3590;BME280;1809;48.470;9.226;2024-03-08T10:32:03;-16328.84;;;5.73;100.00
3590;BME280;1809;48.470;9.226;2024-03-08T10:34:30;-16333.06;;;5.88;100.00
3590;BME280;1809;48.470;9.226;2024-03-08T10:37:00;-16339.00;;;6.10;100.00
3590;BME280;1809;48.470;9.226;2024-03-08T10:39:34;-16344.63;;;6.30;100.00
3590;BME280;1809;48.470;9.226;2024-03-08T10:42:03;-16336.03;;;5.99;100.00
3590;BME280;1809;48.470;9.226;2024-03-08T10:47:00;-16348.97;;;6.45;100.00
3590;BME280;1809;48.470;9.226;2024-03-08T10:49:56;-16349.13;;;6.46;100.00
3590;BME280;1809;48.470;9.226;2024-03-08T10:52:29;-16357.97;;;6.78;100.00
3590;BME280;1809;48.470;9.226;2024-03-08T10:54:55;-16325.63;;;5.62;100.00
3590;BME280;1809;48.470;9.226;2024-03-08T10:57:21;-16316.03;;;5.27;100.00
3590;BME280;1809;48.470;9.226;2024-03-08T10:59:49;-16321.69;;;5.48;100.00
3590;BME280;1809;48.470;9.226;2024-03-08T11:02:16;-16315.63;;;5.26;100.00
3590;BME280;1809;48.470;9.226;2024-03-08T11:04:50;-16307.59;;;4.97;100.00
3590;BME280;1809;48.470;9.226;2024-03-08T11:07:16;-16319.69;;;5.40;100.00
3590;BME280;1809;48.470;9.226;2024-03-08T11:09:43;-16329.84;;;5.77;100.00
3590;BME280;1809;48.470;9.226;2024-03-08T11:14:47;-16343.91;;;6.27;100.00
3590;BME280;1809;48.470;9.226;2024-03-08T11:17:15;-16345.59;;;6.33;100.00
3590;BME280;1809;48.470;9.226;2024-03-08T11:19:49;-16356.72;;;6.73;100.00
3590;BME280;1809;48.470;9.226;2024-03-08T11:22:27;-16361.91;;;6.92;100.00
3590;BME280;1809;48.470;9.226;2024-03-08T11:24:53;-16371.91;;;7.28;100.00
3590;BME280;1809;48.470;9.226;2024-03-08T11:27:29;-16375.97;;;7.42;100.00
3590;BME280;1809;48.470;9.226;2024-03-08T11:30:02;-16376.41;;;7.44;100.00
3590;BME280;1809;48.470;9.226;2024-03-08T11:32:44;-16380.34;;;7.58;100.00
3590;BME280;1809;48.470;9.226;2024-03-08T11:35:19;-16386.66;;;7.81;100.00
3590;BME280;1809;48.470;9.226;2024-03-08T11:37:45;-16381.88;;;7.64;100.00
3590;BME280;1809;48.470;9.226;2024-03-08T11:40:13;-16383.00;;;7.68;100.00
3590;BME280;1809;48.470;9.226;2024-03-08T11:42:48;-16388.50;;;7.87;100.00
3590;BME280;1809;48.470;9.226;2024-03-08T11:45:17;-16389.75;;;7.92;100.00
3590;BME280;1809;48.470;9.226;2024-03-08T11:47:46;-16388.22;;;7.86;100.00
3590;BME280;1809;48.470;9.226;2024-03-08T11:50:13;-16384.41;;;7.73;100.00
3590;BME280;1809;48.470;9.226;2024-03-08T11:52:38;-16371.34;;;7.26;100.00
3590;BME280;1809;48.470;9.226;2024-03-08T11:55:04;-16367.81;;;7.13;100.00
3590;BME280;1809;48.470;9.226;2024-03-08T11:57:31;-16367.41;;;7.12;100.00
3590;BME280;1809;48.470;9.226;2024-03-08T11:59:58;-16375.69;;;7.41;100.00
3590;BME280;1809;48.470;9.226;2024-03-08T12:02:31;-16379.91;;;7.56;100.00
3590;BME280;1809;48.470;9.226;2024-03-08T12:05:00;-16370.78;;;7.24;100.00
3590;BME280;1809;48.470;9.226;2024-03-08T12:07:26;-16365.28;;;7.04;100.00
3590;BME280;1809;48.470;9.226;2024-03-08T12:10:15;-16367.25;;;7.11;100.00
3590;BME280;1809;48.470;9.226;2024-03-08T12:12:47;-16370.34;;;7.22;100.00
3590;BME280;1809;48.470;9.226;2024-03-08T12:15:21;-16373.72;;;7.34;100.00
3590;BME280;1809;48.470;9.226;2024-03-08T12:17:52;-16373.44;;;7.33;100.00
3590;BME280;1809;48.470;9.226;2024-03-08T12:20:22;-16372.59;;;7.30;100.00
3590;BME280;1809;48.470;9.226;2024-03-08T12:22:49;-16374.84;;;7.38;100.00
3590;BME280;1809;48.470;9.226;2024-03-08T12:25:17;-16377.94;;;7.49;100.00
3590;BME280;1809;48.470;9.226;2024-03-08T12:27:43;-16383.00;;;7.68;100.00
3590;BME280;1809;48.470;9.226;2024-03-08T12:32:57;-16381.31;;;7.62;100.00
3590;BME280;1809;48.470;9.226;2024-03-08T12:35:28;-16379.91;;;7.56;100.00
3590;BME280;1809;48.470;9.226;2024-03-08T12:37:54;-16379.91;;;7.56;100.00
3590;BME280;1809;48.470;9.226;2024-03-08T12:40:31;-16376.81;;;7.45;100.00
3590;BME280;1809;48.470;9.226;2024-03-08T12:43:01;-16378.50;;;7.51;100.00
3590;BME280;1809;48.470;9.226;2024-03-08T12:45:27;-16379.06;;;7.53;100.00
3590;BME280;1809;48.470;9.226;2024-03-08T12:47:54;-16381.88;;;7.64;100.00
3590;BME280;1809;48.470;9.226;2024-03-08T12:50:21;-16385.41;;;7.76;100.00
3590;BME280;1809;48.470;9.226;2024-03-08T12:52:47;-16390.31;;;7.94;100.00
3590;BME280;1809;48.470;9.226;2024-03-08T12:55:13;-16397.34;;;8.19;100.00
3590;BME280;1809;48.470;9.226;2024-03-08T12:57:39;-16399.03;;;8.25;100.00
3590;BME280;1809;48.470;9.226;2024-03-08T13:00:05;-16397.63;;;8.20;100.00
3590;BME280;1809;48.470;9.226;2024-03-08T13:02:31;-16393.13;;;8.04;100.00
3590;BME280;1809;48.470;9.226;2024-03-08T13:04:57;-16391.16;;;7.97;100.00
3590;BME280;1809;48.470;9.226;2024-03-08T13:07:23;-16395.09;;;8.11;100.00
3590;BME280;1809;48.470;9.226;2024-03-08T13:09:54;-16393.97;;;8.07;100.00
3590;BME280;1809;48.470;9.226;2024-03-08T13:12:20;-16393.28;;;8.04;100.00
3590;BME280;1809;48.470;9.226;2024-03-08T13:14:47;-16397.34;;;8.19;100.00
3590;BME280;1809;48.470;9.226;2024-03-08T13:17:13;-16397.50;;;8.20;100.00
3590;BME280;1809;48.470;9.226;2024-03-08T13:19:39;-16399.31;;;8.26;100.00
3590;BME280;1809;48.470;9.226;2024-03-08T13:22:04;-16405.78;;;8.49;100.00
3590;BME280;1809;48.470;9.226;2024-03-08T13:24:30;-16403.81;;;8.42;100.00